Time;durP1;ratioP1;P1;durP2;ratioP2;P2;SDS_P1;SDS_P2;PMS_P1;PMS_P2;Temp;Humidity;BMP_temperature;BMP_pressure;BME280_temperature;BME280_humidity;BME280_pressure;Samples;Min_cycle;Max_cycle;Signal;HPM_P1;HPM_P2
2022/08/04 00:02:26;;;;;;;3.60;3.03;;;;;;;28.75;41.03;101171.25;4928732;29;20123;-83
2022/08/04 00:04:59;;;;;;;2.67;2.47;;;;;;;28.67;40.86;101152.53;4928870;29;20505;-82
2022/08/04 00:07:58;;;;;;;7.07;2.85;;;;;;;28.51;41.47;101125.97;4915798;29;20115;-82
2022/08/04 00:10:27;;;;;;;5.00;3.10;;;;;;;28.74;41.29;101163.28;4948276;29;20458;-82
2022/08/04 00:12:58;;;;;;;4.00;2.55;;;;;;;28.72;41.47;101155.34;4934081;29;20458;-83
2022/08/04 00:15:25;;;;;;;3.78;2.78;;;;;;;28.79;41.18;101154.34;4948053;29;20327;-82
2022/08/04 00:18:03;;;;;;;7.13;2.95;;;;;;;28.86;40.95;101149.56;4948425;29;20467;-83
2022/08/04 00:20:32;;;;;;;4.07;3.10;;;;;;;28.88;40.83;101141.97;4931809;29;20115;-82
2022/08/04 00:23:01;;;;;;;4.93;3.17;;;;;;;28.93;40.89;101156.56;4933689;29;20059;-82
2022/08/04 00:25:28;;;;;;;5.45;2.72;;;;;;;28.98;40.87;101144.88;4933371;29;20048;-83
2022/08/04 00:27:55;;;;;;;3.65;2.95;;;;;;;28.86;40.87;101119.53;4931825;29;20075;-84
2022/08/04 00:30:23;;;;;;;4.63;2.92;;;;;;;28.76;40.90;101112.81;4932427;29;20098;-82
2022/08/04 00:32:51;;;;;;;6.68;3.22;;;;;;;28.95;40.87;101153.56;4947873;29;20067;-83
2022/08/04 00:35:17;;;;;;;4.78;2.80;;;;;;;28.74;40.98;101114.09;4948315;29;20119;-81
2022/08/04 00:37:45;;;;;;;8.98;3.47;;;;;;;29.00;40.83;101156.41;4947885;29;20133;-81
2022/08/04 00:40:38;;;;;;;3.97;2.80;;;;;;;29.00;40.97;101156.41;4932025;29;20118;-83
2022/08/04 00:43:27;;;;;;;7.50;3.25;;;;;;;28.88;41.60;101142.78;4931258;29;20071;-82
2022/08/04 00:46:11;;;;;;;5.50;3.08;;;;;;;28.92;41.71;101162.28;4932695;29;20609;-81
2022/08/04 00:48:58;;;;;;;4.75;3.03;;;;;;;28.88;42.02;101161.09;4946623;29;20138;-82
2022/08/04 00:51:36;;;;;;;7.20;3.33;;;;;;;28.90;41.51;101156.22;4948140;29;20115;-81
2022/08/04 00:54:21;;;;;;;3.30;2.60;;;;;;;28.95;40.55;101148.94;4951987;29;20087;-82
2022/08/04 00:57:25;;;;;;;4.38;2.95;;;;;;;29.03;40.35;101161.41;4950351;29;20044;-81
2022/08/04 01:00:13;;;;;;;2.97;2.70;;;;;;;28.83;41.03;101145.44;4947438;29;20083;-80
2022/08/04 01:03:09;;;;;;;2.95;2.63;;;;;;;28.16;41.27;101053.19;4931605;29;20056;-79
2022/08/04 01:06:08;;;;;;;6.30;2.97;;;;;;;28.58;41.28;101137.59;4947155;29;20059;-81
2022/08/04 01:09:02;;;;;;;7.55;3.08;;;;;;;28.58;41.88;101148.53;4920569;29;20107;-83
2022/08/04 01:12:08;;;;;;;4.15;3.03;;;;;;;28.56;41.99;101156.13;4911531;29;20450;-80
2022/08/04 01:15:04;;;;;;;6.65;2.90;;;;;;;28.31;42.32;101127.19;4927755;29;20056;-81
2022/08/04 01:17:57;;;;;;;5.35;2.72;;;;;;;28.42;42.18;101161.00;4912138;29;20115;-82
2022/08/04 01:20:27;;;;;;;2.95;2.63;;;;;;;28.31;42.07;101149.03;4912042;29;20052;-81
2022/08/04 01:23:31;;;;;;;3.03;2.78;;;;;;;28.33;42.41;101146.09;4927592;29;20460;-81
2022/08/04 01:26:04;;;;;;;7.57;3.35;;;;;;;27.84;42.80;101091.84;4927524;29;20671;-82
2022/08/04 01:29:13;;;;;;;2.80;2.60;;;;;;;28.18;42.90;101146.59;4924886;29;20731;-81
2022/08/04 01:31:48;;;;;;;4.93;3.25;;;;;;;28.16;42.88;101140.53;4911924;29;20095;-82
2022/08/04 01:34:18;;;;;;;5.35;2.72;;;;;;;27.83;43.10;101095.63;4927593;29;20052;-82
2022/08/04 01:36:47;;;;;;;3.80;2.72;;;;;;;28.06;43.01;101132.09;4911664;29;20076;-82
2022/08/04 01:42:05;;;;;;;4.32;3.00;;;;;;;28.07;43.02;101147.44;4913113;29;20502;-81
2022/08/04 01:44:36;;;;;;;3.47;3.17;;;;;;;27.97;42.92;101147.22;4926729;29;20087;-82
2022/08/04 01:47:03;;;;;;;3.80;2.72;;;;;;;27.77;43.17;101128.44;4912846;29;20312;-82
2022/08/04 01:49:31;;;;;;;5.38;2.92;;;;;;;27.13;43.17;101027.41;4911385;29;20056;-80
2022/08/04 01:52:09;;;;;;;4.57;2.95;;;;;;;27.82;43.25;101139.50;4911977;29;20523;-81
2022/08/04 01:54:38;;;;;;;5.97;2.95;;;;;;;27.50;43.64;101090.72;4911421;29;20060;-81
2022/08/04 01:57:05;;;;;;;2.50;2.30;;;;;;;27.52;43.50;101085.06;4912558;29;20067;-81
2022/08/04 01:59:52;;;;;;;4.57;2.80;;;;;;;27.67;43.00;101107.22;4911614;29;20048;-81
2022/08/04 02:02:23;;;;;;;5.63;2.85;;;;;;;27.92;43.12;101148.75;4911203;29;20056;-81
2022/08/04 02:04:50;;;;;;;4.55;2.88;;;;;;;27.74;43.22;101137.94;4927388;29;20142;-81
2022/08/04 02:07:51;;;;;;;4.25;3.20;;;;;;;27.82;43.58;101148.53;4912557;29;20048;-81
2022/08/04 02:10:53;;;;;;;4.80;2.78;;;;;;;27.53;43.76;101114.00;4945911;29;20103;-82
2022/08/04 02:13:26;;;;;;;3.75;2.80;;;;;;;27.80;43.05;101152.53;4946236;29;20094;-81
2022/08/04 02:16:01;;;;;;;3.55;2.95;;;;;;;27.78;42.62;101122.75;4946267;29;20557;-82
2022/08/04 02:18:33;;;;;;;4.70;2.72;;;;;;;27.90;42.18;101142.69;4946074;29;20114;-82
2022/08/04 02:21:01;;;;;;;3.47;3.10;;;;;;;27.96;42.40;101154.53;4946103;29;20066;-81
2022/08/04 02:23:41;;;;;;;4.80;2.50;;;;;;;28.02;42.13;101155.50;4929279;29;20075;-82
2022/08/04 02:26:20;;;;;;;3.15;2.70;;;;;;;27.38;42.22;101071.69;4929999;29;20799;-81
2022/08/04 02:29:09;;;;;;;2.88;2.58;;;;;;;27.82;42.65;101151.25;4929978;29;20097;-81
2022/08/04 02:31:51;;;;;;;4.05;2.75;;;;;;;27.77;43.07;101159.28;4945721;29;20475;-81
2022/08/04 02:34:28;;;;;;;6.43;2.83;;;;;;;27.41;42.85;101108.53;4945457;29;20071;-83
2022/08/04 02:36:55;;;;;;;4.53;2.72;;;;;;;27.68;43.33;101160.72;4945858;29;20054;-81
2022/08/04 02:39:22;;;;;;;3.70;2.72;;;;;;;27.51;43.39;101155.13;4929611;29;20517;-81
2022/08/04 02:41:51;;;;;;;3.10;2.80;;;;;;;27.57;43.42;101165.06;4946074;29;20079;-80
2022/08/04 02:44:22;;;;;;;4.05;2.63;;;;;;;27.16;43.15;101100.50;4945403;29;20418;-82
2022/08/04 02:46:53;;;;;;;2.97;2.17;;;;;;;27.41;43.23;101144.78;4931050;29;20055;-81
2022/08/04 02:49:22;;;;;;;2.70;2.50;;;;;;;27.41;43.41;101155.69;4930588;29;20182;-82
2022/08/04 02:51:54;;;;;;;3.03;2.28;;;;;;;27.24;43.56;101131.03;4930715;29;20056;-82
2022/08/04 02:54:37;;;;;;;4.15;2.72;;;;;;;27.40;43.92;101154.03;4932230;29;20455;-82
2022/08/04 02:57:10;;;;;;;3.35;2.85;;;;;;;27.15;43.65;101112.50;4930162;29;20051;-80
2022/08/04 03:00:04;;;;;;;6.82;3.20;;;;;;;27.35;43.63;101143.00;4929531;29;20126;-81
2022/08/04 03:02:53;;;;;;;7.18;2.67;;;;;;;27.19;43.46;101146.44;4945253;29;20130;-81
2022/08/04 03:05:49;;;;;;;3.00;2.80;;;;;;;27.14;44.58;101149.81;4945357;29;20587;-80
2022/08/04 03:08:42;;;;;;;3.47;2.60;;;;;;;27.12;44.14;101154.66;4932578;29;20052;-82
2022/08/04 03:11:08;;;;;;;4.30;2.65;;;;;;;27.18;43.84;101158.34;4926497;29;20052;-81
2022/08/04 03:13:57;;;;;;;4.95;2.70;;;;;;;27.12;42.63;101132.03;4926713;29;20123;-81
2022/08/04 03:17:02;;;;;;;3.30;2.70;;;;;;;27.38;41.95;101164.34;4926010;29;20456;-81
2022/08/04 03:19:37;;;;;;;6.00;2.92;;;;;;;27.30;42.45;101159.22;4925954;29;20059;-81
2022/08/04 03:22:24;;;;;;;8.00;3.03;;;;;;;26.89;42.64;101103.66;4925870;29;20048;-80
2022/08/04 03:25:02;;;;;;;5.18;3.08;;;;;;;27.14;42.62;101168.03;4926967;29;20052;-82
2022/08/04 03:27:51;;;;;;;6.75;2.97;;;;;;;27.06;43.33;101148.25;4925951;29;20048;-80
2022/08/04 03:30:47;;;;;;;7.88;3.50;;;;;;;26.98;42.87;101148.56;4926079;29;20062;-82
2022/08/04 03:33:36;;;;;;;4.82;2.53;;;;;;;26.91;43.10;101156.00;4909227;29;20088;-82
2022/08/04 03:36:23;;;;;;;3.35;2.47;;;;;;;26.48;43.29;101096.25;4929773;29;20561;-81
2022/08/04 03:39:33;;;;;;;5.57;2.78;;;;;;;26.76;43.56;101158.34;4928738;29;20138;-82
2022/08/04 03:42:08;;;;;;;2.78;2.58;;;;;;;26.71;43.81;101155.47;4931521;29;20538;-81
2022/08/04 03:45:15;;;;;;;9.98;3.30;;;;;;;26.76;43.57;101152.88;4936169;29;20204;-82
2022/08/04 03:47:52;;;;;;;6.07;2.72;;;;;;;26.73;43.08;101150.63;4927653;29;20123;-83
2022/08/04 03:53:07;;;;;;;5.78;2.72;;;;;;;26.70;43.34;101154.66;4947319;29;20160;-81
2022/08/04 03:54:23;;;;;;;3.65;2.80;;;;;;;26.52;44.05;101135.56;4928437;29;20084;-80
2022/08/04 03:57:12;;;;;;;7.97;2.90;;;;;;;26.61;43.85;101148.66;4915786;29;20049;-81
2022/08/04 04:00:08;;;;;;;6.30;3.15;;;;;;;26.04;44.37;101069.16;4929937;29;20517;-81
2022/08/04 04:03:06;;;;;;;3.03;2.72;;;;;;;26.34;44.35;101122.84;4929389;29;20060;-80
2022/08/04 04:05:44;;;;;;;3.70;2.60;;;;;;;26.56;44.31;101166.78;4910552;29;20060;-83
2022/08/04 04:08:45;;;;;;;9.02;3.60;;;;;;;26.51;44.80;101167.41;4938027;29;20047;-82
2022/08/04 04:11:43;;;;;;;5.43;3.17;;;;;;;26.46;44.90;101164.56;4947877;29;20498;-80
2022/08/04 04:14:50;;;;;;;8.93;2.90;;;;;;;26.31;45.43;101145.03;4947076;29;20048;-80
2022/08/04 04:17:26;;;;;;;6.10;3.35;;;;;;;26.46;45.49;101170.00;4947913;29;20111;-80
2022/08/04 04:19:56;;;;;;;4.90;3.03;;;;;;;26.29;45.19;101141.72;4947907;29;20472;-80
2022/08/04 04:22:42;;;;;;;;;;;;;;;26.34;45.75;101160.94;4947907;29;20134;-80
2022/08/04 04:25:41;;;;;;;3.75;3.00;;;;;;;26.21;45.28;101151.88;4934327;29;19927;-81
2022/08/04 04:28:19;;;;;;;5.30;3.15;;;;;;;26.39;45.57;101166.53;4897698;29;20103;-81
2022/08/04 04:31:34;;;;;;;6.63;3.65;;;;;;;26.36;45.51;101165.09;4945451;29;20421;-81
2022/08/04 04:34:20;;;;;;;3.58;3.03;;;;;;;26.48;45.12;101172.47;4948045;28;20095;-82
2022/08/04 04:37:05;;;;;;;6.60;3.20;;;;;;;26.58;45.19;101162.75;4947900;29;20067;-81
2022/08/04 04:39:50;;;;;;;8.30;3.72;;;;;;;26.42;45.50;101152.44;4947768;29;20215;-81
2022/08/04 04:42:36;;;;;;;8.15;3.35;;;;;;;25.81;45.30;101053.50;4947069;29;20083;-82
2022/08/04 04:45:08;;;;;;;7.03;3.42;;;;;;;26.52;45.30;101174.50;4946699;28;20044;-81
2022/08/04 04:48:14;;;;;;;4.45;3.03;;;;;;;25.51;45.21;100999.03;4947234;29;20541;-81
2022/08/04 04:50:59;;;;;;;9.07;3.65;;;;;;;26.51;45.59;101167.41;4947698;29;20052;-81
2022/08/04 04:54:10;;;;;;;4.07;2.60;;;;;;;26.48;45.26;101162.41;4950441;29;20051;-82
2022/08/04 04:57:02;;;;;;;4.35;2.63;;;;;;;26.58;45.89;101176.38;4927544;29;20060;-83
2022/08/04 04:59:35;;;;;;;4.00;3.13;;;;;;;26.47;45.62;101155.31;4931499;29;20047;-81
2022/08/04 05:02:39;;;;;;;5.47;3.25;;;;;;;26.59;45.92;101172.56;4947007;29;20076;-81
2022/08/04 05:05:31;;;;;;;4.30;2.67;;;;;;;26.58;46.05;101168.19;4947418;29;20051;-80
2022/08/04 05:08:04;;;;;;;3.33;2.90;;;;;;;26.75;45.48;101183.88;4928153;29;20092;-80
2022/08/04 05:11:10;;;;;;;4.75;3.08;;;;;;;26.46;45.92;101120.16;4926127;29;20089;-80
2022/08/04 05:13:36;;;;;;;10.10;3.45;;;;;;;26.46;45.84;101112.84;4927883;29;20115;-82
2022/08/04 05:16:28;;;;;;;7.15;3.33;;;;;;;26.91;45.18;101188.69;4925304;29;20577;-81
2022/08/04 05:19:00;;;;;;;14.18;3.35;;;;;;;26.96;45.24;101186.13;4927514;29;20049;-82
2022/08/04 05:22:00;;;;;;;8.30;3.17;;;;;;;27.00;45.26;101186.50;4927752;29;20087;-81
2022/08/04 05:24:30;;;;;;;4.93;2.97;;;;;;;27.11;44.86;101173.97;4907574;29;20055;-82
2022/08/04 05:27:04;;;;;;;6.18;2.83;;;;;;;27.14;44.69;101173.50;4911811;29;20052;-82
2022/08/04 05:29:37;;;;;;;8.48;3.70;;;;;;;27.17;44.69;101181.22;4912962;29;20620;-82
2022/08/04 05:32:13;;;;;;;5.40;2.95;;;;;;;27.19;44.83;101179.13;4912989;29;20558;-82
2022/08/04 05:35:01;;;;;;;13.93;3.35;;;;;;;26.84;44.35;101117.13;4911484;29;20056;-81
2022/08/04 05:37:31;;;;;;;9.93;3.97;;;;;;;27.28;44.12;101177.72;4911671;29;20044;-80
2022/08/04 05:40:03;;;;;;;5.65;3.00;;;;;;;27.43;44.73;101177.25;4927552;29;20051;-81
2022/08/04 05:42:37;;;;;;;3.40;3.13;;;;;;;27.15;44.49;101126.13;4912746;29;20049;-81
2022/08/04 05:45:06;;;;;;;4.07;2.90;;;;;;;27.51;43.90;101167.94;4927026;29;20071;-77
2022/08/04 05:47:34;;;;;;;5.10;2.65;;;;;;;27.58;43.32;101177.66;4912647;29;20095;-81
2022/08/04 05:50:03;;;;;;;5.80;2.85;;;;;;;27.55;43.41;101163.66;4911306;29;20055;-82
2022/08/04 05:52:32;;;;;;;3.17;2.33;;;;;;;27.76;43.01;101181.34;4911404;29;20083;-81
2022/08/04 05:55:00;;;;;;;3.95;2.78;;;;;;;27.11;42.88;101062.25;4911303;29;20425;-82
2022/08/04 05:57:28;;;;;;;5.20;2.65;;;;;;;27.70;43.03;101153.13;4912135;29;20052;-81
2022/08/04 05:59:59;;;;;;;3.90;2.40;;;;;;;27.92;42.97;101184.22;4910361;29;20075;-81
2022/08/04 06:02:27;;;;;;;2.67;2.30;;;;;;;27.75;42.18;101147.78;4910645;29;20414;-82
2022/08/04 06:04:55;;;;;;;7.43;2.55;;;;;;;27.95;41.88;101155.63;4927269;29;20405;-81
2022/08/04 06:07:22;;;;;;;3.20;2.40;;;;;;;28.17;40.62;101179.56;4912858;29;20095;-82
2022/08/04 06:09:49;;;;;;;4.13;2.28;;;;;;;28.30;40.83;101179.31;4946001;29;20051;-81
2022/08/04 06:12:24;;;;;;;6.43;2.30;;;;;;;28.17;40.45;101135.91;4945727;29;20040;-83
2022/08/04 06:14:55;;;;;;;9.30;2.30;;;;;;;28.00;39.94;101108.53;4929265;29;20055;-82
2022/08/04 06:17:39;;;;;;;3.65;2.05;;;;;;;28.52;39.73;101180.38;4931002;29;20422;-82
2022/08/04 06:20:30;;;;;;;2.60;2.27;;;;;;;28.31;39.84;101143.59;4931255;29;20055;-81
2022/08/04 06:23:04;;;;;;;14.18;2.85;;;;;;;28.70;39.38;101187.53;4929658;29;20051;-81
2022/08/04 06:25:35;;;;;;;6.97;2.00;;;;;;;28.86;39.49;101196.03;4930062;29;20048;-82
2022/08/04 06:28:06;;;;;;;3.38;2.50;;;;;;;28.86;38.92;101172.28;4945607;29;20106;-82
2022/08/04 06:30:35;;;;;;;5.77;2.50;;;;;;;29.07;38.73;101198.09;4945977;29;20086;-81
2022/08/04 06:33:12;;;;;;;4.32;2.38;;;;;;;29.17;38.22;101190.09;4946407;29;20051;-82
2022/08/04 06:35:40;;;;;;;3.15;2.85;;;;;;;29.22;38.30;101191.25;4945565;29;20056;-82
2022/08/04 06:38:08;;;;;;;6.40;2.60;;;;;;;28.92;38.83;101126.75;4945943;29;20099;-83
2022/08/04 06:40:37;;;;;;;;;;;;;;;29.28;39.35;101190.28;4930194;29;20146;-82
2022/08/04 06:43:06;;;;;;;6.53;2.00;;;;;;;29.39;38.34;101179.25;4930975;29;19982;-81
2022/08/04 06:45:35;;;;;;;5.07;2.70;;;;;;;29.53;38.18;101189.88;4930792;29;20054;-82
2022/08/04 06:48:05;;;;;;;5.35;2.33;;;;;;;29.60;38.17;101185.06;4929872;29;20358;-82
2022/08/04 06:50:34;;;;;;;3.47;2.38;;;;;;;29.67;37.90;101188.50;4929584;29;20048;-81
2022/08/04 06:53:21;;;;;;;3.70;2.47;;;;;;;29.74;38.02;101189.16;4945058;29;20142;-81
2022/08/04 06:55:49;;;;;;;4.25;2.78;;;;;;;29.57;37.87;101150.84;4934541;29;20106;-84
2022/08/04 06:58:19;;;;;;;7.95;2.47;;;;;;;29.86;38.18;101189.06;4945661;29;20056;-83
2022/08/04 07:00:46;;;;;;;3.53;2.50;;;;;;;29.79;38.37;101180.19;4931005;29;20051;-82
2022/08/04 07:03:15;;;;;;;2.55;2.20;;;;;;;29.90;38.09;101192.13;4944334;29;20167;-81
2022/08/04 07:05:45;;;;;;;5.75;2.33;;;;;;;29.51;37.85;101126.38;4945375;29;20506;-81
2022/08/04 07:08:12;;;;;;;2.92;2.20;;;;;;;29.97;38.31;101190.84;4920932;29;20056;-81
2022/08/04 07:10:39;;;;;;;6.88;2.22;;;;;;;30.03;37.67;101200.81;4914357;29;20110;-81
2022/08/04 07:13:08;;;;;;;2.47;2.25;;;;;;;29.98;37.50;101181.59;4914423;29;20044;-81
2022/08/04 07:15:37;;;;;;;3.78;2.22;;;;;;;29.33;37.63;101072.78;4930405;29;20395;-82
2022/08/04 07:18:04;;;;;;;5.10;2.60;;;;;;;30.15;36.66;101191.66;4914149;29;20172;-81
2022/08/04 07:20:32;;;;;;;6.07;2.38;;;;;;;30.03;36.17;101145.25;4914610;29;20072;-82
2022/08/04 07:23:05;;;;;;;4.13;2.17;;;;;;;29.94;36.35;101133.88;4914094;29;20100;-82
2022/08/04 07:25:34;;;;;;;5.25;2.53;;;;;;;30.29;36.25;101181.19;4913840;29;20059;-81
2022/08/04 07:28:25;;;;;;;3.20;2.10;;;;;;;30.15;36.23;101158.81;4914362;29;20380;-82
2022/08/04 07:30:52;;;;;;;;;;;;;;;30.36;36.06;101185.38;4914358;29;20113;-81
2022/08/04 07:33:33;;;;;;;2.33;2.13;;;;;;;29.80;36.48;101095.09;4930392;29;20021;-81
2022/08/04 07:36:37;;;;;;;4.22;2.50;;;;;;;30.45;35.74;101189.34;4908912;29;20375;-82
2022/08/04 07:39:17;;;;;;;3.50;2.53;;;;;;;30.42;35.48;101170.69;4914870;29;20059;-85
2022/08/04 07:41:54;;;;;;;4.07;2.58;;;;;;;30.46;35.37;101179.22;4928112;29;20059;-83
2022/08/04 07:44:21;;;;;;;2.40;2.05;;;;;;;30.53;35.57;101187.25;4926847;29;20510;-83
2022/08/04 07:46:48;;;;;;;2.63;2.25;;;;;;;30.52;35.18;101177.38;4913385;29;20499;-83
2022/08/04 07:49:15;;;;;;;5.65;2.85;;;;;;;30.43;35.14;101158.63;4929017;29;20076;-84
2022/08/04 07:52:03;;;;;;;8.63;2.53;;;;;;;30.64;35.13;101175.34;4913823;29;20051;-82
2022/08/04 07:54:30;;;;;;;2.97;2.40;;;;;;;30.33;34.94;101108.41;4929527;29;20116;-82
2022/08/04 07:56:57;;;;;;;2.00;1.90;;;;;;;30.76;34.38;101161.50;4929751;29;20103;-83
2022/08/04 07:59:24;;;;;;;4.55;2.17;;;;;;;30.81;33.98;101165.09;4929520;29;20498;-83
2022/08/04 08:01:52;;;;;;;2.55;2.35;;;;;;;30.59;34.01;101117.75;4929610;29;20083;-83
2022/08/04 08:04:21;;;;;;;6.88;2.63;;;;;;;30.59;33.47;101095.81;4914451;29;20103;-83
2022/08/04 08:06:50;;;;;;;2.50;2.05;;;;;;;30.91;34.14;101158.94;4915254;29;20676;-83
2022/08/04 08:09:24;;;;;;;2.53;2.30;;;;;;;30.30;34.00;101059.63;4914094;29;20414;-82
2022/08/04 08:11:52;;;;;;;5.30;2.00;;;;;;;31.02;33.84;101157.09;4914797;29;20060;-85
2022/08/04 08:14:40;;;;;;;4.30;1.90;;;;;;;31.17;33.89;101157.25;4926394;29;20095;-83
2022/08/04 08:17:07;;;;;;;7.78;2.22;;;;;;;31.25;33.77;101158.69;4929018;29;20443;-83
2022/08/04 08:19:34;;;;;;;3.85;2.30;;;;;;;30.93;33.80;101101.94;4928244;29;20072;-83
2022/08/04 08:22:10;;;;;;;3.72;2.05;;;;;;;31.13;33.37;101123.22;4929290;29;20074;-83
2022/08/04 08:24:37;;;;;;;3.50;2.38;;;;;;;31.04;33.90;101097.34;4930796;29;20147;-83
2022/08/04 08:27:05;;;;;;;12.13;3.00;;;;;;;30.15;33.99;100942.53;4916237;29;20460;-83
2022/08/04 08:29:33;;;;;;;5.38;2.63;;;;;;;31.44;33.70;101132.56;4919311;29;20111;-84
2022/08/04 08:32:03;;;;;;;3.97;2.47;;;;;;;30.74;33.27;101013.75;4934458;29;20055;-85
2022/08/04 08:34:36;;;;;;;6.38;3.03;;;;;;;30.75;33.50;101007.19;4931966;29;20107;-83
2022/08/04 08:37:24;;;;;;;2.90;2.10;;;;;;;31.81;33.09;101150.06;4916744;29;20060;-85
2022/08/04 08:40:20;;;;;;;9.57;2.67;;;;;;;31.89;32.01;101133.09;4930385;29;20522;-84
2022/08/04 08:43:34;;;;;;;4.68;2.60;;;;;;;32.05;31.77;101156.00;4915370;29;20066;-84
2022/08/04 08:47:04;;;;;;;8.80;2.47;;;;;;;32.11;32.31;101152.19;4926642;29;20471;-84
2022/08/04 08:50:09;;;;;;;8.52;2.40;;;;;;;30.99;31.79;100963.00;4910940;29;20750;-83
2022/08/04 08:53:04;;;;;;;3.92;2.10;;;;;;;32.34;31.36;101153.66;4913449;29;20487;-84
2022/08/04 08:56:10;;;;;;;4.32;1.95;;;;;;;31.86;31.71;101065.00;4920330;29;20052;-83
2022/08/04 08:59:04;;;;;;;2.85;2.38;;;;;;;31.41;31.36;100975.88;4923907;29;20056;-84
2022/08/04 09:01:46;;;;;;;2.78;2.30;;;;;;;32.01;31.51;101058.78;4927727;29;20435;-85
2022/08/04 09:04:45;;;;;;;3.78;2.50;;;;;;;32.17;31.40;101070.66;4913298;29;20063;-84
2022/08/04 09:07:17;;;;;;;3.75;2.17;;;;;;;31.49;31.99;100961.66;4928825;29;20060;-84
2022/08/04 09:10:06;;;;;;;6.97;2.75;;;;;;;31.85;31.28;100986.50;4946567;29;20054;-84
2022/08/04 09:12:40;;;;;;;6.75;2.58;;;;;;;32.25;31.93;101023.44;4947156;29;20056;-84
2022/08/04 09:15:20;;;;;;;6.85;2.40;;;;;;;32.98;31.69;101133.22;4947165;29;20466;-84
2022/08/04 09:17:56;;;;;;;7.05;2.55;;;;;;;33.38;31.19;101148.94;4947503;29;20062;-83
2022/08/04 09:20:41;;;;;;;4.85;2.60;;;;;;;33.65;30.60;101150.59;4946918;29;20405;-84
2022/08/04 09:23:27;;;;;;;2.90;2.65;;;;;;;33.60;30.35;101153.38;4946853;29;20114;-84
2022/08/04 09:26:10;;;;;;;3.97;2.53;;;;;;;33.19;30.06;101085.41;4946728;29;20070;-84
2022/08/04 09:28:49;;;;;;;14.43;2.67;;;;;;;33.20;29.85;101072.47;4931248;29;20066;-81
2022/08/04 09:31:24;;;;;;;5.95;2.45;;;;;;;33.66;29.56;101115.63;4945554;28;20047;-84
2022/08/04 09:34:07;;;;;;;;;;;;;;;33.82;29.91;101150.28;4947242;29;20111;-83
2022/08/04 09:37:02;;;;;;;3.28;2.58;;;;;;;33.57;29.49;101093.34;4930479;29;19927;-82
2022/08/04 09:39:40;;;;;;;2.83;2.20;;;;;;;33.93;29.73;101118.03;4930774;29;20115;-81
2022/08/04 09:42:19;;;;;;;3.35;3.05;;;;;;;34.29;29.47;101148.22;4931143;29;20055;-84
2022/08/04 09:45:00;;;;;;;4.72;2.40;;;;;;;33.33;29.81;100981.13;4945955;29;20090;-84
2022/08/04 09:47:47;;;;;;;9.27;2.38;;;;;;;34.53;28.72;101138.19;4931298;29;20530;-84
2022/08/04 09:50:27;;;;;;;3.13;2.83;;;;;;;34.52;28.86;101132.94;4946713;29;20106;-84
2022/08/04 09:53:08;;;;;;;3.35;2.55;;;;;;;34.62;28.45;101122.72;4931679;29;20438;-83
2022/08/04 09:55:46;;;;;;;2.60;2.40;;;;;;;34.54;28.00;101098.47;4931618;29;20051;-83
2022/08/04 09:58:32;;;;;;;3.00;2.50;;;;;;;34.50;28.86;101080.06;4945063;29;20083;-83
2022/08/04 10:01:16;;;;;;;3.13;2.83;;;;;;;34.86;28.41;101111.81;4945623;29;20458;-83
2022/08/04 10:03:58;;;;;;;5.40;2.80;;;;;;;35.13;28.49;101123.50;4928988;29;20051;-84
2022/08/04 10:06:48;;;;;;;5.03;2.80;;;;;;;35.15;27.77;101122.09;4944919;29;20054;-84
2022/08/04 10:09:39;;;;;;;3.05;2.38;;;;;;;34.34;27.81;100956.13;4929661;29;20066;-84
2022/08/04 10:12:24;;;;;;;2.63;2.33;;;;;;;35.54;27.49;101107.38;4929266;29;20111;-85
2022/08/04 10:15:15;;;;;;;6.68;2.80;;;;;;;35.87;26.77;101119.44;4926910;29;20052;-85
2022/08/04 10:18:09;;;;;;;4.15;2.22;;;;;;;35.50;27.15;101020.72;4910795;29;20088;-84
2022/08/04 10:20:42;;;;;;;3.47;2.50;;;;;;;35.99;26.63;101079.53;4910656;29;20048;-84
2022/08/04 10:23:24;;;;;;;2.80;2.25;;;;;;;36.09;25.98;101115.34;4925665;29;20189;-84
2022/08/04 10:26:13;;;;;;;2.80;2.15;;;;;;;35.84;26.05;101050.97;4926910;29;20044;-84
2022/08/04 10:28:50;;;;;;;7.13;3.30;;;;;;;36.26;26.37;101089.97;4911926;29;20554;-83
2022/08/04 10:31:26;;;;;;;10.13;2.40;;;;;;;36.63;26.09;101116.84;4910845;29;20150;-84
2022/08/04 10:34:18;;;;;;;2.90;2.70;;;;;;;36.32;25.99;101061.16;4910980;29;20138;-84
2022/08/04 10:37:18;;;;;;;2.97;2.63;;;;;;;36.78;25.84;101101.97;4911971;29;20048;-83
2022/08/04 10:43:00;;;;;;;2.70;2.47;;;;;;;37.25;25.39;101107.56;4911372;29;20060;-84
2022/08/04 10:45:55;;;;;;;4.40;2.75;;;;;;;37.42;24.62;101099.50;4926720;29;20060;-85
2022/08/04 10:48:39;;;;;;;2.78;2.58;;;;;;;37.47;25.24;101093.03;4926049;29;20056;-84
2022/08/04 10:51:38;;;;;;;7.75;2.63;;;;;;;37.45;24.92;101082.25;4910788;29;20048;-84
2022/08/04 10:54:43;;;;;;;3.15;2.38;;;;;;;37.60;24.70;101078.41;4905221;29;20495;-83
2022/08/04 10:57:18;;;;;;;2.40;2.13;;;;;;;37.85;24.54;101061.28;4919837;29;20044;-85
2022/08/04 10:59:58;;;;;;;3.90;2.47;;;;;;;37.95;24.30;101074.09;4914558;29;20563;-84
2022/08/04 11:02:59;;;;;;;3.25;2.78;;;;;;;38.05;24.17;101073.06;4906671;29;20060;-84
2022/08/04 11:05:34;;;;;;;2.45;2.15;;;;;;;37.89;24.31;101069.78;4906930;29;20057;-84
2022/08/04 11:08:14;;;;;;;3.10;2.85;;;;;;;37.29;24.08;100984.03;4924178;29;20079;-84
2022/08/04 11:10:54;;;;;;;2.97;2.40;;;;;;;38.23;23.65;101076.81;4931979;28;20067;-85
2022/08/04 11:13:30;;;;;;;6.93;3.00;;;;;;;37.83;24.13;101018.38;4945904;29;20426;-84
2022/08/04 11:16:03;;;;;;;4.25;2.60;;;;;;;37.46;23.99;100934.41;4945004;29;20419;-84
2022/08/04 11:18:37;;;;;;;3.50;2.72;;;;;;;38.67;23.39;101089.16;4929426;29;20071;-85
2022/08/04 11:21:25;;;;;;;2.78;2.47;;;;;;;38.73;23.37;101073.22;4945746;29;20059;-85
2022/08/04 11:24:07;;;;;;;3.00;2.30;;;;;;;38.20;23.41;100975.69;4928216;29;20545;-85
2022/08/04 11:26:47;;;;;;;3.30;3.00;;;;;;;38.89;23.19;101075.28;4930740;29;20056;-84
2022/08/04 11:29:32;;;;;;;2.78;2.58;;;;;;;38.94;22.97;101070.75;4944634;29;20047;-84
2022/08/04 11:32:02;;;;;;;3.75;2.17;;;;;;;38.62;22.33;100983.84;4944702;29;20143;-84
2022/08/04 11:34:29;;;;;;;2.53;2.33;;;;;;;38.15;22.09;100897.41;4929320;29;20142;-84
2022/08/04 11:37:02;;;;;;;2.38;2.17;;;;;;;39.17;21.85;101066.81;4929108;29;20082;-85
2022/08/04 11:39:42;;;;;;;3.00;2.70;;;;;;;39.00;22.39;101028.69;4944840;29;20060;-83
2022/08/04 11:42:26;;;;;;;6.85;2.95;;;;;;;38.46;22.48;100928.78;4929348;29;20483;-85
2022/08/04 11:45:04;;;;;;;2.63;2.42;;;;;;;39.37;22.10;101034.91;4945301;29;20048;-84
2022/08/04 11:47:46;;;;;;;3.88;2.50;;;;;;;39.44;22.01;101046.38;4944655;29;20570;-84
2022/08/04 11:50:28;;;;;;;9.73;3.30;;;;;;;39.65;21.82;101049.41;4945370;29;20565;-84
2022/08/04 11:52:57;;;;;;;3.08;2.33;;;;;;;39.66;21.98;101016.88;4946003;29;20051;-85
2022/08/04 11:55:26;;;;;;;4.38;2.55;;;;;;;40.03;21.31;101018.28;4947285;28;20063;-82
2022/08/04 11:57:54;;;;;;;4.22;2.65;;;;;;;40.09;21.24;101011.41;4933196;29;20059;-84
2022/08/04 12:00:23;;;;;;;14.45;2.55;;;;;;;40.10;20.02;100996.38;4933846;29;20083;-86
2022/08/04 12:03:31;;;;;;;247.57;36.65;;;;;;;40.65;19.82;101049.69;4932583;29;20048;-84
2022/08/04 12:06:14;;;;;;;;;;;;;;;40.70;20.76;101046.78;4948550;29;20055;-83
2022/08/04 12:08:53;;;;;;;4.75;2.55;;;;;;;40.61;20.29;101026.47;4918893;29;19931;-80
2022/08/04 12:11:36;;;;;;;3.78;2.15;;;;;;;41.06;19.61;101042.75;4897016;29;20064;-80
2022/08/04 12:14:13;;;;;;;2.85;2.35;;;;;;;41.18;19.73;101029.00;4910400;29;20568;-81
2022/08/04 12:17:00;;;;;;;2.78;2.33;;;;;;;41.35;19.34;101037.25;4911119;29;20064;-82
2022/08/04 12:19:55;;;;;;;2.92;2.72;;;;;;;41.39;18.84;101035.47;4911436;29;20056;-82
2022/08/04 12:22:49;;;;;;;3.75;2.35;;;;;;;41.15;18.92;100991.50;4907997;29;20140;-82
2022/08/04 12:25:29;;;;;;;2.42;2.15;;;;;;;41.15;18.34;100968.41;4909983;29;20052;-83
2022/08/04 12:28:11;;;;;;;6.63;2.25;;;;;;;41.55;18.08;100995.91;4910020;29;20076;-82
2022/08/04 12:30:44;;;;;;;4.28;2.20;;;;;;;41.73;18.54;101000.22;4910254;29;20068;-83
2022/08/04 12:33:46;;;;;;;2.55;2.30;;;;;;;42.18;18.88;101018.25;4908404;29;20052;-82
2022/08/04 12:36:54;;;;;;;5.85;2.83;;;;;;;42.28;18.14;101021.44;4907913;29;20127;-82